sensor_id;sensor_type;location;lat;lon;timestamp;temperature;humidity
17992;DHT22;9121;50.926;5.340;2023-01-24T00:01:16;3.90;99.30
17992;DHT22;9121;50.926;5.340;2023-01-24T00:03:44;3.80;97.60
17992;DHT22;9121;50.926;5.340;2023-01-24T00:06:11;3.70;98.50
17992;DHT22;9121;50.926;5.340;2023-01-24T00:08:38;3.70;98.10
17992;DHT22;9121;50.926;5.340;2023-01-24T00:11:06;3.60;98.60
17992;DHT22;9121;50.926;5.340;2023-01-24T00:13:34;3.60;99.40
17992;DHT22;9121;50.926;5.340;2023-01-24T00:16:05;3.60;99.90
17992;DHT22;9121;50.926;5.340;2023-01-24T00:18:32;3.60;99.50
17992;DHT22;9121;50.926;5.340;2023-01-24T00:21:04;3.60;99.90
17992;DHT22;9121;50.926;5.340;2023-01-24T00:23:34;3.60;99.90
17992;DHT22;9121;50.926;5.340;2023-01-24T00:26:01;3.60;99.90
17992;DHT22;9121;50.926;5.340;2023-01-24T00:28:29;3.70;99.90
17992;DHT22;9121;50.926;5.340;2023-01-24T00:30:56;3.70;99.90
17992;DHT22;9121;50.926;5.340;2023-01-24T00:33:24;3.70;99.90
17992;DHT22;9121;50.926;5.340;2023-01-24T00:35:52;3.80;99.90
17992;DHT22;9121;50.926;5.340;2023-01-24T00:38:20;3.70;99.90
17992;DHT22;9121;50.926;5.340;2023-01-24T00:40:47;3.70;99.90
17992;DHT22;9121;50.926;5.340;2023-01-24T00:43:14;3.60;99.90
17992;DHT22;9121;50.926;5.340;2023-01-24T00:45:43;3.70;99.90
17992;DHT22;9121;50.926;5.340;2023-01-24T00:48:11;3.70;99.90
17992;DHT22;9121;50.926;5.340;2023-01-24T00:50:40;3.70;99.90
17992;DHT22;9121;50.926;5.340;2023-01-24T00:53:07;3.60;99.90
17992;DHT22;9121;50.926;5.340;2023-01-24T00:55:39;3.60;99.90
17992;DHT22;9121;50.926;5.340;2023-01-24T00:58:06;3.60;99.90
17992;DHT22;9121;50.926;5.340;2023-01-24T01:00:33;3.70;99.90
17992;DHT22;9121;50.926;5.340;2023-01-24T01:03:02;3.70;99.90
17992;DHT22;9121;50.926;5.340;2023-01-24T01:05:29;3.80;99.90
17992;DHT22;9121;50.926;5.340;2023-01-24T01:07:58;3.80;99.90
17992;DHT22;9121;50.926;5.340;2023-01-24T01:10:25;3.80;99.90
17992;DHT22;9121;50.926;5.340;2023-01-24T01:12:52;3.80;99.90
17992;DHT22;9121;50.926;5.340;2023-01-24T01:15:19;3.80;99.90
17992;DHT22;9121;50.926;5.340;2023-01-24T01:17:46;3.80;99.90
17992;DHT22;9121;50.926;5.340;2023-01-24T01:20:13;3.80;99.70
17992;DHT22;9121;50.926;5.340;2023-01-24T01:22:40;3.90;99.90
17992;DHT22;9121;50.926;5.340;2023-01-24T01:25:08;3.80;99.90
17992;DHT22;9121;50.926;5.340;2023-01-24T01:27:35;3.80;99.10
17992;DHT22;9121;50.926;5.340;2023-01-24T01:30:03;3.80;99.90
17992;DHT22;9121;50.926;5.340;2023-01-24T01:32:30;3.70;99.90
17992;DHT22;9121;50.926;5.340;2023-01-24T01:34:57;3.80;99.90
17992;DHT22;9121;50.926;5.340;2023-01-24T01:37:24;3.80;99.90
17992;DHT22;9121;50.926;5.340;2023-01-24T01:39:51;3.80;99.90
17992;DHT22;9121;50.926;5.340;2023-01-24T01:42:19;3.80;99.90
17992;DHT22;9121;50.926;5.340;2023-01-24T01:44:47;3.90;99.90
17992;DHT22;9121;50.926;5.340;2023-01-24T01:47:23;3.80;99.90
17992;DHT22;9121;50.926;5.340;2023-01-24T01:49:56;3.80;99.90
17992;DHT22;9121;50.926;5.340;2023-01-24T01:52:24;3.80;99.90
17992;DHT22;9121;50.926;5.340;2023-01-24T01:54:55;3.70;99.90
17992;DHT22;9121;50.926;5.340;2023-01-24T01:57:30;3.70;99.90
17992;DHT22;9121;50.926;5.340;2023-01-24T02:00:00;3.70;99.90
17992;DHT22;9121;50.926;5.340;2023-01-24T02:02:29;3.80;99.90
17992;DHT22;9121;50.926;5.340;2023-01-24T02:05:00;3.80;99.90
17992;DHT22;9121;50.926;5.340;2023-01-24T02:07:31;3.90;99.90
17992;DHT22;9121;50.926;5.340;2023-01-24T02:10:01;3.90;99.90
17992;DHT22;9121;50.926;5.340;2023-01-24T02:12:34;3.90;99.90
17992;DHT22;9121;50.926;5.340;2023-01-24T02:15:06;3.80;99.90
17992;DHT22;9121;50.926;5.340;2023-01-24T02:17:51;3.80;99.90
17992;DHT22;9121;50.926;5.340;2023-01-24T02:20:29;3.80;99.90
17992;DHT22;9121;50.926;5.340;2023-01-24T02:23:06;3.80;99.90
17992;DHT22;9121;50.926;5.340;2023-01-24T02:25:39;3.80;99.90
17992;DHT22;9121;50.926;5.340;2023-01-24T02:28:08;3.80;99.90
17992;DHT22;9121;50.926;5.340;2023-01-24T02:30:37;3.80;99.90
17992;DHT22;9121;50.926;5.340;2023-01-24T02:33:12;3.90;99.90
17992;DHT22;9121;50.926;5.340;2023-01-24T02:35:40;3.90;99.90
17992;DHT22;9121;50.926;5.340;2023-01-24T02:38:14;3.90;99.90
17992;DHT22;9121;50.926;5.340;2023-01-24T02:40:43;3.80;99.50
17992;DHT22;9121;50.926;5.340;2023-01-24T02:43:14;3.80;99.90
17992;DHT22;9121;50.926;5.340;2023-01-24T02:45:43;3.80;99.90
17992;DHT22;9121;50.926;5.340;2023-01-24T02:48:10;3.70;99.90
17992;DHT22;9121;50.926;5.340;2023-01-24T02:50:37;3.70;99.90
17992;DHT22;9121;50.926;5.340;2023-01-24T02:53:18;3.60;99.90
17992;DHT22;9121;50.926;5.340;2023-01-24T02:55:58;3.60;99.90
17992;DHT22;9121;50.926;5.340;2023-01-24T02:58:44;3.70;99.90
17992;DHT22;9121;50.926;5.340;2023-01-24T03:01:12;3.70;99.90
17992;DHT22;9121;50.926;5.340;2023-01-24T03:03:40;3.60;99.90
17992;DHT22;9121;50.926;5.340;2023-01-24T03:06:07;3.60;99.90
17992;DHT22;9121;50.926;5.340;2023-01-24T03:08:35;3.60;99.90
17992;DHT22;9121;50.926;5.340;2023-01-24T03:11:04;3.70;99.90
17992;DHT22;9121;50.926;5.340;2023-01-24T03:13:31;3.70;99.90
17992;DHT22;9121;50.926;5.340;2023-01-24T03:16:17;3.60;99.90
17992;DHT22;9121;50.926;5.340;2023-01-24T03:19:02;3.60;99.90
17992;DHT22;9121;50.926;5.340;2023-01-24T03:21:47;3.50;99.90
17992;DHT22;9121;50.926;5.340;2023-01-24T03:24:31;3.60;99.90
17992;DHT22;9121;50.926;5.340;2023-01-24T03:27:16;3.70;99.90
17992;DHT22;9121;50.926;5.340;2023-01-24T03:30:00;3.80;99.90
17992;DHT22;9121;50.926;5.340;2023-01-24T03:32:46;3.70;99.90
17992;DHT22;9121;50.926;5.340;2023-01-24T03:35:30;3.70;99.90
17992;DHT22;9121;50.926;5.340;2023-01-24T03:37:58;3.80;99.90
17992;DHT22;9121;50.926;5.340;2023-01-24T03:40:42;3.90;99.90
17992;DHT22;9121;50.926;5.340;2023-01-24T03:43:09;3.90;99.90
17992;DHT22;9121;50.926;5.340;2023-01-24T03:45:38;3.90;99.60
17992;DHT22;9121;50.926;5.340;2023-01-24T03:48:08;3.90;99.90
17992;DHT22;9121;50.926;5.340;2023-01-24T03:50:40;3.90;99.90
17992;DHT22;9121;50.926;5.340;2023-01-24T03:53:26;3.90;99.80
17992;DHT22;9121;50.926;5.340;2023-01-24T03:55:55;3.80;99.90
17992;DHT22;9121;50.926;5.340;2023-01-24T03:58:23;3.90;99.90
17992;DHT22;9121;50.926;5.340;2023-01-24T04:00:52;3.90;99.90
17992;DHT22;9121;50.926;5.340;2023-01-24T04:03:20;3.90;99.90
17992;DHT22;9121;50.926;5.340;2023-01-24T04:05:47;3.80;99.90
17992;DHT22;9121;50.926;5.340;2023-01-24T04:08:15;3.80;99.90
17992;DHT22;9121;50.926;5.340;2023-01-24T04:10:43;3.80;99.90
17992;DHT22;9121;50.926;5.340;2023-01-24T04:13:11;3.70;99.90
17992;DHT22;9121;50.926;5.340;2023-01-24T04:15:38;3.70;99.90
17992;DHT22;9121;50.926;5.340;2023-01-24T04:18:06;3.80;99.90
17992;DHT22;9121;50.926;5.340;2023-01-24T04:20:36;3.80;99.90
17992;DHT22;9121;50.926;5.340;2023-01-24T04:23:05;3.80;99.90
17992;DHT22;9121;50.926;5.340;2023-01-24T04:25:33;3.80;99.90
17992;DHT22;9121;50.926;5.340;2023-01-24T04:28:01;3.70;99.90
17992;DHT22;9121;50.926;5.340;2023-01-24T04:30:28;3.60;99.90
17992;DHT22;9121;50.926;5.340;2023-01-24T04:32:55;3.50;99.90
17992;DHT22;9121;50.926;5.340;2023-01-24T04:35:24;3.40;99.90
17992;DHT22;9121;50.926;5.340;2023-01-24T04:37:56;3.40;99.90
17992;DHT22;9121;50.926;5.340;2023-01-24T04:40:24;3.40;99.90
17992;DHT22;9121;50.926;5.340;2023-01-24T04:42:51;3.60;99.90
17992;DHT22;9121;50.926;5.340;2023-01-24T04:45:18;3.60;99.90
17992;DHT22;9121;50.926;5.340;2023-01-24T04:47:45;3.70;99.90
17992;DHT22;9121;50.926;5.340;2023-01-24T04:50:12;3.60;99.70
17992;DHT22;9121;50.926;5.340;2023-01-24T04:52:39;3.60;99.90
17992;DHT22;9121;50.926;5.340;2023-01-24T04:55:07;3.40;99.90
17992;DHT22;9121;50.926;5.340;2023-01-24T04:57:34;3.40;99.90
17992;DHT22;9121;50.926;5.340;2023-01-24T05:00:02;3.40;99.90
17992;DHT22;9121;50.926;5.340;2023-01-24T05:02:30;3.40;99.90
17992;DHT22;9121;50.926;5.340;2023-01-24T05:04:58;3.40;99.90
17992;DHT22;9121;50.926;5.340;2023-01-24T05:07:25;3.40;99.90
17992;DHT22;9121;50.926;5.340;2023-01-24T05:09:52;3.40;99.90
17992;DHT22;9121;50.926;5.340;2023-01-24T05:12:20;3.40;99.90
17992;DHT22;9121;50.926;5.340;2023-01-24T05:14:47;3.40;99.90
17992;DHT22;9121;50.926;5.340;2023-01-24T05:17:14;3.20;99.60
17992;DHT22;9121;50.926;5.340;2023-01-24T05:19:41;3.20;99.90
17992;DHT22;9121;50.926;5.340;2023-01-24T05:22:08;3.30;99.90
17992;DHT22;9121;50.926;5.340;2023-01-24T05:24:35;3.20;99.00
17992;DHT22;9121;50.926;5.340;2023-01-24T05:27:01;3.20;99.80
17992;DHT22;9121;50.926;5.340;2023-01-24T05:29:30;3.30;99.90
17992;DHT22;9121;50.926;5.340;2023-01-24T05:31:57;3.30;98.10
17992;DHT22;9121;50.926;5.340;2023-01-24T05:34:24;3.30;99.90
17992;DHT22;9121;50.926;5.340;2023-01-24T05:36:51;3.30;99.90
17992;DHT22;9121;50.926;5.340;2023-01-24T05:39:18;3.30;99.70
17992;DHT22;9121;50.926;5.340;2023-01-24T05:41:45;3.30;99.10
17992;DHT22;9121;50.926;5.340;2023-01-24T05:44:12;3.20;99.00
17992;DHT22;9121;50.926;5.340;2023-01-24T05:46:40;3.30;99.30
17992;DHT22;9121;50.926;5.340;2023-01-24T05:49:09;3.20;98.60
17992;DHT22;9121;50.926;5.340;2023-01-24T05:51:36;3.10;99.00
17992;DHT22;9121;50.926;5.340;2023-01-24T05:54:03;3.10;99.90
17992;DHT22;9121;50.926;5.340;2023-01-24T05:56:30;3.10;99.90
17992;DHT22;9121;50.926;5.340;2023-01-24T05:58:57;3.10;99.40
17992;DHT22;9121;50.926;5.340;2023-01-24T06:01:26;3.00;99.90
17992;DHT22;9121;50.926;5.340;2023-01-24T06:03:55;3.00;99.90
17992;DHT22;9121;50.926;5.340;2023-01-24T06:06:23;3.20;99.90
17992;DHT22;9121;50.926;5.340;2023-01-24T06:08:51;3.20;99.90
17992;DHT22;9121;50.926;5.340;2023-01-24T06:11:20;3.30;99.60
17992;DHT22;9121;50.926;5.340;2023-01-24T06:13:48;3.30;98.80
17992;DHT22;9121;50.926;5.340;2023-01-24T06:16:17;3.30;97.90
17992;DHT22;9121;50.926;5.340;2023-01-24T06:18:44;3.20;98.70
17992;DHT22;9121;50.926;5.340;2023-01-24T06:21:24;3.20;99.50
17992;DHT22;9121;50.926;5.340;2023-01-24T06:23:53;3.30;99.10
17992;DHT22;9121;50.926;5.340;2023-01-24T06:26:20;3.30;99.50
17992;DHT22;9121;50.926;5.340;2023-01-24T06:28:48;3.40;99.70
17992;DHT22;9121;50.926;5.340;2023-01-24T06:31:22;3.50;98.90
17992;DHT22;9121;50.926;5.340;2023-01-24T06:34:05;3.50;98.30
17992;DHT22;9121;50.926;5.340;2023-01-24T06:36:45;3.40;98.30
17992;DHT22;9121;50.926;5.340;2023-01-24T06:39:19;3.40;98.10
17992;DHT22;9121;50.926;5.340;2023-01-24T06:41:47;3.40;98.70
17992;DHT22;9121;50.926;5.340;2023-01-24T06:44:15;3.50;98.10
17992;DHT22;9121;50.926;5.340;2023-01-24T06:46:42;3.30;97.00
17992;DHT22;9121;50.926;5.340;2023-01-24T06:49:10;3.30;98.30
17992;DHT22;9121;50.926;5.340;2023-01-24T06:51:40;3.20;98.90
17992;DHT22;9121;50.926;5.340;2023-01-24T06:54:06;3.30;99.60
17992;DHT22;9121;50.926;5.340;2023-01-24T06:56:34;3.40;98.20
17992;DHT22;9121;50.926;5.340;2023-01-24T06:59:01;3.40;98.70
17992;DHT22;9121;50.926;5.340;2023-01-24T07:01:28;3.40;97.50
17992;DHT22;9121;50.926;5.340;2023-01-24T07:03:55;3.40;97.80
17992;DHT22;9121;50.926;5.340;2023-01-24T07:06:22;3.40;98.70
17992;DHT22;9121;50.926;5.340;2023-01-24T07:08:50;3.40;98.10
17992;DHT22;9121;50.926;5.340;2023-01-24T07:11:17;3.30;97.30
17992;DHT22;9121;50.926;5.340;2023-01-24T07:13:44;3.30;98.10
17992;DHT22;9121;50.926;5.340;2023-01-24T07:16:11;3.20;98.00
17992;DHT22;9121;50.926;5.340;2023-01-24T07:18:39;3.30;98.50
17992;DHT22;9121;50.926;5.340;2023-01-24T07:21:06;3.40;97.60
17992;DHT22;9121;50.926;5.340;2023-01-24T07:23:35;3.40;97.40
17992;DHT22;9121;50.926;5.340;2023-01-24T07:26:07;3.50;96.20
17992;DHT22;9121;50.926;5.340;2023-01-24T07:28:36;3.30;95.70
17992;DHT22;9121;50.926;5.340;2023-01-24T07:31:04;3.20;95.40
17992;DHT22;9121;50.926;5.340;2023-01-24T07:33:31;3.10;96.10
17992;DHT22;9121;50.926;5.340;2023-01-24T07:35:58;3.10;96.30
17992;DHT22;9121;50.926;5.340;2023-01-24T07:38:25;3.10;96.60
17992;DHT22;9121;50.926;5.340;2023-01-24T07:40:52;3.10;97.00
17992;DHT22;9121;50.926;5.340;2023-01-24T07:43:20;3.10;95.90
17992;DHT22;9121;50.926;5.340;2023-01-24T07:45:47;3.10;96.80
17992;DHT22;9121;50.926;5.340;2023-01-24T07:48:14;3.20;95.80
17992;DHT22;9121;50.926;5.340;2023-01-24T07:50:41;3.10;94.30
17992;DHT22;9121;50.926;5.340;2023-01-24T07:53:08;3.00;95.80
17992;DHT22;9121;50.926;5.340;2023-01-24T07:55:35;3.20;97.10
17992;DHT22;9121;50.926;5.340;2023-01-24T07:58:03;3.20;95.60
17992;DHT22;9121;50.926;5.340;2023-01-24T08:00:31;3.20;94.60
17992;DHT22;9121;50.926;5.340;2023-01-24T08:02:58;3.20;94.40
17992;DHT22;9121;50.926;5.340;2023-01-24T08:05:25;3.20;92.90
17992;DHT22;9121;50.926;5.340;2023-01-24T08:07:53;3.10;92.20
17992;DHT22;9121;50.926;5.340;2023-01-24T08:10:21;3.10;92.80
17992;DHT22;9121;50.926;5.340;2023-01-24T08:12:48;3.20;94.10
17992;DHT22;9121;50.926;5.340;2023-01-24T08:15:16;3.20;92.40
17992;DHT22;9121;50.926;5.340;2023-01-24T08:17:44;3.20;92.60
17992;DHT22;9121;50.926;5.340;2023-01-24T08:20:11;3.30;92.10
17992;DHT22;9121;50.926;5.340;2023-01-24T08:22:38;3.20;92.30
17992;DHT22;9121;50.926;5.340;2023-01-24T08:25:07;3.20;92.70
17992;DHT22;9121;50.926;5.340;2023-01-24T08:27:34;3.10;92.10
17992;DHT22;9121;50.926;5.340;2023-01-24T08:30:02;3.00;93.10
17992;DHT22;9121;50.926;5.340;2023-01-24T08:32:29;3.00;93.90
17992;DHT22;9121;50.926;5.340;2023-01-24T08:34:58;3.20;94.00
17992;DHT22;9121;50.926;5.340;2023-01-24T08:37:25;3.20;91.00
17992;DHT22;9121;50.926;5.340;2023-01-24T08:39:52;3.20;91.30
17992;DHT22;9121;50.926;5.340;2023-01-24T08:42:22;3.20;92.20
17992;DHT22;9121;50.926;5.340;2023-01-24T08:44:49;3.30;92.60
17992;DHT22;9121;50.926;5.340;2023-01-24T08:47:16;3.20;90.70
17992;DHT22;9121;50.926;5.340;2023-01-24T08:49:43;3.20;92.50
17992;DHT22;9121;50.926;5.340;2023-01-24T08:52:12;3.20;92.70
17992;DHT22;9121;50.926;5.340;2023-01-24T08:54:39;3.20;91.10
17992;DHT22;9121;50.926;5.340;2023-01-24T08:57:06;3.20;91.50
17992;DHT22;9121;50.926;5.340;2023-01-24T08:59:33;3.30;91.80
17992;DHT22;9121;50.926;5.340;2023-01-24T09:02:00;3.40;91.60
17992;DHT22;9121;50.926;5.340;2023-01-24T09:04:27;3.40;89.20
17992;DHT22;9121;50.926;5.340;2023-01-24T09:06:54;3.40;90.10
17992;DHT22;9121;50.926;5.340;2023-01-24T09:09:23;3.20;90.60
17992;DHT22;9121;50.926;5.340;2023-01-24T09:11:51;3.20;91.00
17992;DHT22;9121;50.926;5.340;2023-01-24T09:14:18;3.10;91.90
17992;DHT22;9121;50.926;5.340;2023-01-24T09:16:45;3.10;92.10
17992;DHT22;9121;50.926;5.340;2023-01-24T09:19:12;3.30;92.90
17992;DHT22;9121;50.926;5.340;2023-01-24T09:21:39;3.40;90.00
17992;DHT22;9121;50.926;5.340;2023-01-24T09:24:06;3.20;90.60
17992;DHT22;9121;50.926;5.340;2023-01-24T09:26:35;3.30;90.70
17992;DHT22;9121;50.926;5.340;2023-01-24T09:29:02;3.30;91.30
17992;DHT22;9121;50.926;5.340;2023-01-24T09:31:29;3.30;91.50
17992;DHT22;9121;50.926;5.340;2023-01-24T09:33:56;3.40;91.80
17992;DHT22;9121;50.926;5.340;2023-01-24T09:36:23;3.40;88.10
17992;DHT22;9121;50.926;5.340;2023-01-24T09:38:50;3.40;90.50
17992;DHT22;9121;50.926;5.340;2023-01-24T09:41:24;3.50;90.80
17992;DHT22;9121;50.926;5.340;2023-01-24T09:43:59;3.50;89.00
17992;DHT22;9121;50.926;5.340;2023-01-24T09:46:30;3.50;91.10
17992;DHT22;9121;50.926;5.340;2023-01-24T09:49:11;3.70;91.00
17992;DHT22;9121;50.926;5.340;2023-01-24T09:51:44;3.60;85.90
17992;DHT22;9121;50.926;5.340;2023-01-24T09:54:17;3.50;89.30
17992;DHT22;9121;50.926;5.340;2023-01-24T09:56:49;3.60;88.30
17992;DHT22;9121;50.926;5.340;2023-01-24T09:59:25;3.60;84.70
17992;DHT22;9121;50.926;5.340;2023-01-24T10:01:56;3.50;87.00
17992;DHT22;9121;50.926;5.340;2023-01-24T10:04:30;3.50;89.60
17992;DHT22;9121;50.926;5.340;2023-01-24T10:07:24;3.60;90.70
17992;DHT22;9121;50.926;5.340;2023-01-24T10:10:01;3.60;85.40
17992;DHT22;9121;50.926;5.340;2023-01-24T10:12:42;3.60;86.80
17992;DHT22;9121;50.926;5.340;2023-01-24T10:21:20;3.70;89.40
17992;DHT22;9121;50.926;5.340;2023-01-24T10:23:52;3.70;84.80
17992;DHT22;9121;50.926;5.340;2023-01-24T10:26:22;3.70;86.20
17992;DHT22;9121;50.926;5.340;2023-01-24T10:28:54;3.70;86.40
17992;DHT22;9121;50.926;5.340;2023-01-24T10:31:27;3.70;87.70
17992;DHT22;9121;50.926;5.340;2023-01-24T10:33:58;3.70;83.90
17992;DHT22;9121;50.926;5.340;2023-01-24T10:36:34;3.50;84.10
17992;DHT22;9121;50.926;5.340;2023-01-24T10:39:08;3.60;89.30
17992;DHT22;9121;50.926;5.340;2023-01-24T10:41:36;3.60;87.20
17992;DHT22;9121;50.926;5.340;2023-01-24T10:44:12;3.60;86.60
17992;DHT22;9121;50.926;5.340;2023-01-24T10:47:02;3.40;87.90
17992;DHT22;9121;50.926;5.340;2023-01-24T10:49:36;3.40;90.80
17992;DHT22;9121;50.926;5.340;2023-01-24T10:52:14;3.60;88.90
17992;DHT22;9121;50.926;5.340;2023-01-24T10:54:44;3.70;87.80
17992;DHT22;9121;50.926;5.340;2023-01-24T10:57:24;3.90;86.70
17992;DHT22;9121;50.926;5.340;2023-01-24T10:59:54;4.00;83.40
17992;DHT22;9121;50.926;5.340;2023-01-24T11:02:24;4.00;82.80
17992;DHT22;9121;50.926;5.340;2023-01-24T11:04:59;4.10;82.40
17992;DHT22;9121;50.926;5.340;2023-01-24T11:07:28;4.20;81.50
17992;DHT22;9121;50.926;5.340;2023-01-24T11:09:59;4.20;79.40
17992;DHT22;9121;50.926;5.340;2023-01-24T11:12:27;4.20;77.80
17992;DHT22;9121;50.926;5.340;2023-01-24T11:14:54;4.10;76.70
17992;DHT22;9121;50.926;5.340;2023-01-24T11:17:32;4.10;79.90
17992;DHT22;9121;50.926;5.340;2023-01-24T11:20:04;4.10;79.60
17992;DHT22;9121;50.926;5.340;2023-01-24T11:22:49;4.10;80.10
17992;DHT22;9121;50.926;5.340;2023-01-24T11:25:18;4.30;79.60
17992;DHT22;9121;50.926;5.340;2023-01-24T11:27:47;4.40;73.70
17992;DHT22;9121;50.926;5.340;2023-01-24T11:30:17;4.20;71.00
17992;DHT22;9121;50.926;5.340;2023-01-24T11:32:57;4.20;74.40
17992;DHT22;9121;50.926;5.340;2023-01-24T11:35:29;4.10;69.90
17992;DHT22;9121;50.926;5.340;2023-01-24T11:38:16;3.90;76.10
17992;DHT22;9121;50.926;5.340;2023-01-24T11:40:57;4.00;80.30
17992;DHT22;9121;50.926;5.340;2023-01-24T11:46:21;4.10;76.00
17992;DHT22;9121;50.926;5.340;2023-01-24T11:48:56;4.00;74.40
17992;DHT22;9121;50.926;5.340;2023-01-24T11:51:37;3.90;79.20
17992;DHT22;9121;50.926;5.340;2023-01-24T11:54:22;3.90;82.70
17992;DHT22;9121;50.926;5.340;2023-01-24T11:56:57;4.00;81.70
17992;DHT22;9121;50.926;5.340;2023-01-24T11:59:43;4.00;78.90
17992;DHT22;9121;50.926;5.340;2023-01-24T12:02:37;3.90;78.50
17992;DHT22;9121;50.926;5.340;2023-01-24T12:05:24;3.80;84.30
17992;DHT22;9121;50.926;5.340;2023-01-24T12:08:01;3.90;86.20
17992;DHT22;9121;50.926;5.340;2023-01-24T12:10:38;3.80;81.20
17992;DHT22;9121;50.926;5.340;2023-01-24T12:13:16;3.70;85.00
17992;DHT22;9121;50.926;5.340;2023-01-24T12:15:56;3.60;86.40
17992;DHT22;9121;50.926;5.340;2023-01-24T12:18:44;3.70;91.30
17992;DHT22;9121;50.926;5.340;2023-01-24T12:21:16;3.90;89.70
17992;DHT22;9121;50.926;5.340;2023-01-24T12:23:49;4.10;82.80
17992;DHT22;9121;50.926;5.340;2023-01-24T12:26:21;4.20;79.90
17992;DHT22;9121;50.926;5.340;2023-01-24T12:28:55;4.20;77.20
17992;DHT22;9121;50.926;5.340;2023-01-24T12:31:30;4.30;78.40
17992;DHT22;9121;50.926;5.340;2023-01-24T12:34:02;4.30;77.10
17992;DHT22;9121;50.926;5.340;2023-01-24T12:36:37;4.40;76.10
17992;DHT22;9121;50.926;5.340;2023-01-24T12:39:12;4.50;73.40
17992;DHT22;9121;50.926;5.340;2023-01-24T12:41:41;4.50;66.80
17992;DHT22;9121;50.926;5.340;2023-01-24T12:44:24;4.40;69.50
17992;DHT22;9121;50.926;5.340;2023-01-24T12:49:56;4.30;76.50
17992;DHT22;9121;50.926;5.340;2023-01-24T12:52:33;4.30;75.70
17992;DHT22;9121;50.926;5.340;2023-01-24T12:55:09;4.30;76.30
17992;DHT22;9121;50.926;5.340;2023-01-24T12:57:42;4.20;77.00
17992;DHT22;9121;50.926;5.340;2023-01-24T13:00:21;4.30;79.90
17992;DHT22;9121;50.926;5.340;2023-01-24T13:03:16;4.40;81.10
17992;DHT22;9121;50.926;5.340;2023-01-24T13:05:51;4.30;76.80
17992;DHT22;9121;50.926;5.340;2023-01-24T13:08:32;3.90;74.10
17992;DHT22;9121;50.926;5.340;2023-01-24T13:11:16;3.60;87.40
17992;DHT22;9121;50.926;5.340;2023-01-24T13:13:47;3.60;90.40
17992;DHT22;9121;50.926;5.340;2023-01-24T13:16:44;3.60;89.00
17992;DHT22;9121;50.926;5.340;2023-01-24T13:19:22;3.40;91.20
17992;DHT22;9121;50.926;5.340;2023-01-24T13:21:57;3.40;92.50
17992;DHT22;9121;50.926;5.340;2023-01-24T13:24:48;3.50;92.70
17992;DHT22;9121;50.926;5.340;2023-01-24T13:27:41;3.60;91.30
17992;DHT22;9121;50.926;5.340;2023-01-24T13:30:26;3.50;91.60
17992;DHT22;9121;50.926;5.340;2023-01-24T13:32:58;3.40;92.20
17992;DHT22;9121;50.926;5.340;2023-01-24T13:35:28;3.40;94.90
17992;DHT22;9121;50.926;5.340;2023-01-24T13:38:00;3.50;93.30
17992;DHT22;9121;50.926;5.340;2023-01-24T13:40:30;3.50;92.60
17992;DHT22;9121;50.926;5.340;2023-01-24T13:43:01;3.50;92.80
17992;DHT22;9121;50.926;5.340;2023-01-24T13:45:48;3.50;91.90
17992;DHT22;9121;50.926;5.340;2023-01-24T13:48:44;3.50;93.00
17992;DHT22;9121;50.926;5.340;2023-01-24T13:51:31;3.40;92.20
17992;DHT22;9121;50.926;5.340;2023-01-24T13:53:59;3.50;92.30
17992;DHT22;9121;50.926;5.340;2023-01-24T13:56:28;3.50;91.50
17992;DHT22;9121;50.926;5.340;2023-01-24T13:58:55;3.40;92.20
17992;DHT22;9121;50.926;5.340;2023-01-24T14:01:24;3.40;92.20
17992;DHT22;9121;50.926;5.340;2023-01-24T14:03:57;3.40;93.90
17992;DHT22;9121;50.926;5.340;2023-01-24T14:06:25;3.60;92.90
17992;DHT22;9121;50.926;5.340;2023-01-24T14:09:03;3.70;90.10
17992;DHT22;9121;50.926;5.340;2023-01-24T14:11:38;3.80;89.60
17992;DHT22;9121;50.926;5.340;2023-01-24T14:17:48;3.80;87.70
17992;DHT22;9121;50.926;5.340;2023-01-24T14:20:41;3.90;88.40
17992;DHT22;9121;50.926;5.340;2023-01-24T14:23:19;4.00;88.60
17992;DHT22;9121;50.926;5.340;2023-01-24T14:25:52;4.00;85.50
17992;DHT22;9121;50.926;5.340;2023-01-24T14:28:31;4.00;84.70
17992;DHT22;9121;50.926;5.340;2023-01-24T14:31:03;3.90;87.10
17992;DHT22;9121;50.926;5.340;2023-01-24T14:33:40;4.00;88.50
17992;DHT22;9121;50.926;5.340;2023-01-24T14:36:30;4.00;87.60
17992;DHT22;9121;50.926;5.340;2023-01-24T14:39:19;3.90;87.20
17992;DHT22;9121;50.926;5.340;2023-01-24T14:41:47;3.90;89.10
17992;DHT22;9121;50.926;5.340;2023-01-24T14:44:18;4.00;91.20
17992;DHT22;9121;50.926;5.340;2023-01-24T14:46:54;4.10;86.60
17992;DHT22;9121;50.926;5.340;2023-01-24T14:49:31;4.00;87.10
17992;DHT22;9121;50.926;5.340;2023-01-24T14:51:59;4.00;84.60
17992;DHT22;9121;50.926;5.340;2023-01-24T14:54:27;3.80;86.90
17992;DHT22;9121;50.926;5.340;2023-01-24T14:56:54;3.50;91.60
17992;DHT22;9121;50.926;5.340;2023-01-24T14:59:22;3.30;93.20
17992;DHT22;9121;50.926;5.340;2023-01-24T15:01:51;3.30;95.50
17992;DHT22;9121;50.926;5.340;2023-01-24T15:04:26;3.30;95.30
17992;DHT22;9121;50.926;5.340;2023-01-24T15:07:04;3.20;96.30
17992;DHT22;9121;50.926;5.340;2023-01-24T15:09:31;3.30;97.00
17992;DHT22;9121;50.926;5.340;2023-01-24T15:12:18;3.30;95.20
17992;DHT22;9121;50.926;5.340;2023-01-24T15:14:50;3.10;97.40
17992;DHT22;9121;50.926;5.340;2023-01-24T15:17:21;3.20;98.10
17992;DHT22;9121;50.926;5.340;2023-01-24T15:19:49;3.10;97.90
17992;DHT22;9121;50.926;5.340;2023-01-24T15:22:20;3.10;98.20
17992;DHT22;9121;50.926;5.340;2023-01-24T15:24:52;3.10;99.20
17992;DHT22;9121;50.926;5.340;2023-01-24T15:27:35;3.10;98.70
17992;DHT22;9121;50.926;5.340;2023-01-24T15:30:15;3.10;99.70
17992;DHT22;9121;50.926;5.340;2023-01-24T15:32:44;3.20;98.20
17992;DHT22;9121;50.926;5.340;2023-01-24T15:35:21;3.20;99.90
17992;DHT22;9121;50.926;5.340;2023-01-24T15:38:10;3.20;98.80
17992;DHT22;9121;50.926;5.340;2023-01-24T15:40:50;3.30;98.40
17992;DHT22;9121;50.926;5.340;2023-01-24T15:43:21;3.20;96.20
17992;DHT22;9121;50.926;5.340;2023-01-24T15:46:07;3.10;98.30
17992;DHT22;9121;50.926;5.340;2023-01-24T15:48:59;3.00;98.80
17992;DHT22;9121;50.926;5.340;2023-01-24T15:51:36;3.10;99.40
17992;DHT22;9121;50.926;5.340;2023-01-24T15:54:09;3.00;97.40
17992;DHT22;9121;50.926;5.340;2023-01-24T15:56:38;3.20;98.70
17992;DHT22;9121;50.926;5.340;2023-01-24T15:59:12;3.20;96.40
17992;DHT22;9121;50.926;5.340;2023-01-24T16:01:42;3.20;94.80
17992;DHT22;9121;50.926;5.340;2023-01-24T16:04:12;3.20;95.40
17992;DHT22;9121;50.926;5.340;2023-01-24T16:06:39;3.40;97.10
17992;DHT22;9121;50.926;5.340;2023-01-24T16:09:06;3.40;93.70
17992;DHT22;9121;50.926;5.340;2023-01-24T16:11:34;3.40;94.60
17992;DHT22;9121;50.926;5.340;2023-01-24T16:14:02;3.20;95.10
17992;DHT22;9121;50.926;5.340;2023-01-24T16:16:30;3.10;97.00
17992;DHT22;9121;50.926;5.340;2023-01-24T16:18:59;2.90;98.40
17992;DHT22;9121;50.926;5.340;2023-01-24T16:21:26;3.00;99.00
17992;DHT22;9121;50.926;5.340;2023-01-24T16:23:53;3.00;98.30
17992;DHT22;9121;50.926;5.340;2023-01-24T16:26:23;2.90;99.30
17992;DHT22;9121;50.926;5.340;2023-01-24T16:28:50;3.10;99.10
17992;DHT22;9121;50.926;5.340;2023-01-24T16:31:17;2.90;95.50
17992;DHT22;9121;50.926;5.340;2023-01-24T16:33:44;2.80;97.90
17992;DHT22;9121;50.926;5.340;2023-01-24T16:36:13;2.80;99.00
17992;DHT22;9121;50.926;5.340;2023-01-24T16:38:41;2.90;99.20
17992;DHT22;9121;50.926;5.340;2023-01-24T16:41:09;3.00;99.70
17992;DHT22;9121;50.926;5.340;2023-01-24T16:43:38;3.10;96.20
17992;DHT22;9121;50.926;5.340;2023-01-24T16:46:16;3.00;95.90